CheckWX is a tool to help pilots better visualize weather data.  It is not intended as a substitute for an official pre-flight weather briefing.

15:28:07 UTC

KGEG METAR
Spokane International Airport
Spokane, Washington, USA
Current

35 mins ago

KGEG 171453Z 21015G22KT 10SM BKN009 OVC035 08/06 A2965 RMK AO2 SLP041 T00830061 58002
Observed
Oct-17 @ 14:53 UTC
Wind
  • 210° at 15 KTS
  • Gusting to 22 KTS
Visibility
10 SM
Flight Rules
IFR
Cloud Levels
  • Broken at 900' AGL
  • Overcast at 3,500' AGL
Temperature
C / 46°F
Dewpoint
C / 43°F
Humidity
87%
Altimeter
29.65" Hg
Pressure
1004.02 hPa
Previous

2 hours ago

KGEG 171353Z 20013G21KT 10SM BKN012 OVC036 08/06 A2965 RMK AO2 SLP042 T00830061
Observed
Oct-17 @ 13:53 UTC
Wind
  • 200° at 13 KTS
  • Gusting to 21 KTS
Visibility
10 SM
Flight Rules
MVFR
Cloud Levels
  • Broken at 1,200' AGL
  • Overcast at 3,600' AGL
Temperature
C / 46°F
Dewpoint
C / 43°F
Humidity
87%
Altimeter
29.65" Hg
Pressure
1004.02 hPa
Previous

2 hours ago

KGEG 171318Z 21013KT 10SM BKN012 BKN049 OVC070 08/06 A2966 RMK AO2 T00830061
Observed
Oct-17 @ 13:18 UTC
Wind
  • 210° at 13 KTS
Visibility
10 SM
Flight Rules
MVFR
Cloud Levels
  • Broken at 1,200' AGL
  • Broken at 4,900' AGL
  • Overcast at 7,000' AGL
Temperature
C / 46°F
Dewpoint
C / 43°F
Humidity
87%
Altimeter
29.66" Hg
Pressure
1004.42 hPa